createdAt,value
2023-02-11T00:01:22.307Z,96658.22
2023-02-11T00:03:49.549Z,96656.66
2023-02-11T00:06:17.493Z,96656.28
2023-02-11T00:08:44.246Z,96634.34
2023-02-11T00:11:15.210Z,96644.97
2023-02-11T00:13:43.466Z,96653.28
2023-02-11T00:16:13.018Z,96649.47
2023-02-11T00:18:39.845Z,96657.59
2023-02-11T00:21:12.351Z,96644.44
2023-02-11T00:23:39.894Z,96660.88
2023-02-11T00:26:20.908Z,96654.94
2023-02-11T00:28:49.797Z,96648.66
2023-02-11T00:31:18.015Z,96656.75
2023-02-11T00:33:45.398Z,96648.56
2023-02-11T00:36:15.830Z,96648.34
2023-02-11T00:38:47.789Z,96644.72
2023-02-11T00:41:16.131Z,96648.38
2023-02-11T00:43:43.607Z,96644.97
2023-02-11T00:46:10.567Z,96649.97
2023-02-11T00:48:37.435Z,96647.59
2023-02-11T00:51:05.088Z,96655.91
2023-02-11T00:53:32.302Z,96652.47
2023-02-11T00:55:59.379Z,96646.81
2023-02-11T00:58:26.308Z,96647.88
2023-02-11T01:00:54.338Z,96652.59
2023-02-11T01:03:21.599Z,96653.25
2023-02-11T01:05:48.843Z,96654.31
2023-02-11T01:08:15.949Z,96658.56
2023-02-11T01:10:44.156Z,96653.94
2023-02-11T01:13:11.087Z,96640.25
2023-02-11T01:15:37.852Z,96616.78
2023-02-11T01:18:05.598Z,96614.84
2023-02-11T01:20:32.359Z,96626.66
2023-02-11T01:22:59.185Z,96614.72
2023-02-11T01:25:25.921Z,96609.84
2023-02-11T01:27:52.660Z,96614.00
2023-02-11T01:30:19.428Z,96610.09
2023-02-11T01:32:47.336Z,96616.56
2023-02-11T01:35:14.523Z,96628.13
2023-02-11T01:37:42.048Z,96627.31
2023-02-11T01:40:16.738Z,96637.88
2023-02-11T01:42:44.475Z,96628.47
2023-02-11T01:45:39.310Z,96634.34
2023-02-11T01:48:06.545Z,96624.59
2023-02-11T01:50:34.607Z,96615.53
2023-02-11T01:53:21.993Z,96598.06
2023-02-11T01:56:08.392Z,96611.94
2023-02-11T01:58:39.619Z,96620.84
2023-02-11T02:01:08.395Z,96608.81
2023-02-11T02:03:40.994Z,96592.47
2023-02-11T02:06:11.017Z,96600.75
2023-02-11T02:08:52.516Z,96603.97
2023-02-11T02:11:19.637Z,96611.97
2023-02-11T02:13:46.488Z,96601.66
2023-02-11T02:16:16.291Z,96596.59
2023-02-11T02:18:49.079Z,96598.41
2023-02-11T02:21:31.021Z,96605.38
2023-02-11T02:24:22.129Z,96615.50
2023-02-11T02:27:26.285Z,96620.78
2023-02-11T02:30:11.549Z,96607.44
2023-02-11T02:32:44.278Z,96601.81
2023-02-11T02:35:15.136Z,96604.19
2023-02-11T02:37:52.065Z,96601.53
2023-02-11T02:40:25.811Z,96598.88
2023-02-11T02:42:54.989Z,96596.34
2023-02-11T02:45:22.080Z,96585.97
2023-02-11T02:47:49.956Z,96589.66
2023-02-11T02:50:23.079Z,96576.31
2023-02-11T02:53:10.769Z,96572.69
2023-02-11T02:55:51.432Z,96573.44
2023-02-11T02:58:30.375Z,96578.25
2023-02-11T03:01:19.219Z,96577.66
2023-02-11T03:04:01.237Z,96583.78
2023-02-11T03:07:11.499Z,96582.84
2023-02-11T03:09:45.064Z,96581.50
2023-02-11T03:12:13.960Z,96588.06
2023-02-11T03:14:42.065Z,96592.66
2023-02-11T03:17:10.507Z,96598.97
2023-02-11T03:19:41.183Z,96578.72
2023-02-11T03:22:18.384Z,96537.13
2023-02-11T03:24:46.157Z,96532.25
2023-02-11T03:27:21.537Z,96549.75
2023-02-11T03:30:16.124Z,96544.91
2023-02-11T03:32:56.468Z,96539.44
2023-02-11T03:35:28.037Z,96533.53
2023-02-11T03:38:02.687Z,96525.03
2023-02-11T03:40:35.376Z,96532.53
2023-02-11T03:43:23.142Z,96522.78
2023-02-11T03:45:53.294Z,96527.59
2023-02-11T03:48:28.056Z,96527.16
2023-02-11T03:50:58.247Z,96529.66
2023-02-11T03:53:25.046Z,96516.44
2023-02-11T03:55:54.934Z,96518.41
2023-02-11T03:58:22.081Z,96504.19
2023-02-11T04:00:50.116Z,96499.34
2023-02-11T04:03:16.960Z,96503.25
2023-02-11T04:05:43.708Z,96507.66
2023-02-11T04:08:10.488Z,96512.41
2023-02-11T04:10:37.303Z,96510.97
2023-02-11T04:13:04.015Z,96508.31
2023-02-11T04:15:31.068Z,96523.25
2023-02-11T04:17:57.824Z,96518.47
2023-02-11T04:20:24.839Z,96500.50
2023-02-11T04:22:52.218Z,96510.97
2023-02-11T04:25:19.144Z,96513.25
2023-02-11T04:27:45.987Z,96513.47
2023-02-11T04:30:13.570Z,96516.31
2023-02-11T04:32:40.315Z,96523.31
2023-02-11T04:35:07.427Z,96531.97
2023-02-11T04:37:34.243Z,96529.91
2023-02-11T04:40:01.423Z,96505.44
2023-02-11T04:42:28.144Z,96510.28
2023-02-11T04:44:55.196Z,96519.78
2023-02-11T04:47:22.271Z,96545.44
2023-02-11T04:49:49.166Z,96542.41
2023-02-11T04:52:16.330Z,96550.00
2023-02-11T04:54:43.023Z,96550.19
2023-02-11T04:57:09.746Z,96550.63
2023-02-11T04:59:36.500Z,96553.75
2023-02-11T05:02:04.388Z,96556.28
2023-02-11T05:04:31.506Z,96554.41
2023-02-11T05:06:58.777Z,96559.19
2023-02-11T05:09:25.545Z,96556.84
2023-02-11T05:11:52.752Z,96546.22
2023-02-11T05:14:19.715Z,96551.28
2023-02-11T05:16:46.618Z,96570.69
2023-02-11T05:19:13.480Z,96575.34
2023-02-11T05:21:50.357Z,96578.25
2023-02-11T05:24:24.066Z,96558.44
2023-02-11T05:26:50.894Z,96568.88
2023-02-11T05:29:17.612Z,96564.69
2023-02-11T05:31:44.400Z,96566.81
2023-02-11T05:34:11.220Z,96571.19
2023-02-11T05:36:37.898Z,96579.41
2023-02-11T05:39:04.640Z,96572.53
2023-02-11T05:41:31.545Z,96554.19
2023-02-11T05:43:58.281Z,96561.06
2023-02-11T05:46:25.147Z,96549.28
2023-02-11T05:48:51.957Z,96521.00
2023-02-11T05:51:18.731Z,96510.41
2023-02-11T05:53:45.608Z,96532.34
2023-02-11T05:56:12.665Z,96528.25
2023-02-11T05:58:39.378Z,96529.28
2023-02-11T06:01:06.231Z,96529.16
2023-02-11T06:03:33.003Z,96514.41
2023-02-11T06:05:59.754Z,96517.59
2023-02-11T06:08:26.467Z,96520.72
2023-02-11T06:10:53.149Z,96538.19
2023-02-11T06:13:20.082Z,96542.09
2023-02-11T06:15:56.087Z,96515.59
2023-02-11T06:18:23.117Z,96512.50
2023-02-11T06:20:50.147Z,96512.78
2023-02-11T06:23:17.154Z,96510.13
2023-02-11T06:25:44.050Z,96507.81
2023-02-11T06:28:11.238Z,96510.41
2023-02-11T06:30:44.713Z,96522.63
2023-02-11T06:33:11.461Z,96530.66
2023-02-11T06:35:39.448Z,96533.91
2023-02-11T06:38:06.431Z,96523.72
2023-02-11T06:40:33.189Z,96521.94
2023-02-11T06:42:59.976Z,96531.03
2023-02-11T06:45:26.859Z,96537.88
2023-02-11T06:47:53.627Z,96541.34
2023-02-11T06:50:20.563Z,96554.97
2023-02-11T06:52:47.469Z,96545.19
2023-02-11T06:55:14.790Z,96538.13
2023-02-11T06:57:41.741Z,96542.59
2023-02-11T07:00:09.512Z,96530.81
2023-02-11T07:02:36.700Z,96526.53
2023-02-11T07:05:04.971Z,96516.81
2023-02-11T07:07:34.281Z,96505.06
2023-02-11T07:10:03.298Z,96505.72
2023-02-11T07:12:31.319Z,96505.25
2023-02-11T07:14:58.417Z,96517.84
2023-02-11T07:17:25.333Z,96521.97
2023-02-11T07:19:52.173Z,96521.81
2023-02-11T07:22:18.948Z,96526.63
2023-02-11T07:24:46.402Z,96532.53
2023-02-11T07:27:13.349Z,96537.09
2023-02-11T07:29:42.356Z,96545.97
2023-02-11T07:32:09.195Z,96551.72
2023-02-11T07:34:36.073Z,96545.72
2023-02-11T07:37:03.174Z,96545.50
2023-02-11T07:39:30.452Z,96517.06
2023-02-11T07:41:57.331Z,96509.22
2023-02-11T07:44:25.134Z,96517.44
2023-02-11T07:46:52.246Z,96501.81
2023-02-11T07:49:19.049Z,96483.25
2023-02-11T07:51:46.113Z,96474.03
2023-02-11T07:54:13.113Z,96493.41
2023-02-11T07:56:40.502Z,96508.53
2023-02-11T07:59:07.462Z,96530.34
2023-02-11T08:01:34.501Z,96520.78
2023-02-11T08:04:02.208Z,96526.66
2023-02-11T08:06:32.135Z,96533.28
2023-02-11T08:09:03.924Z,96528.09
2023-02-11T08:11:30.798Z,96528.09
2023-02-11T08:13:57.569Z,96520.63
2023-02-11T08:16:33.936Z,96516.81
2023-02-11T08:19:07.481Z,96499.75
2023-02-11T08:21:34.220Z,96494.31
2023-02-11T08:24:03.122Z,96499.66
2023-02-11T08:26:32.049Z,96460.19
2023-02-11T08:28:59.375Z,96444.25
2023-02-11T08:31:29.440Z,96453.75
2023-02-11T08:33:59.885Z,96470.97
2023-02-11T08:36:32.080Z,96443.97
2023-02-11T08:39:17.542Z,96453.19
2023-02-11T08:41:47.200Z,96484.81
2023-02-11T08:44:13.970Z,96489.69
2023-02-11T08:46:40.976Z,96492.25
2023-02-11T08:49:07.850Z,96490.09
2023-02-11T08:51:34.747Z,96507.38
2023-02-11T08:54:02.342Z,96511.38
2023-02-11T08:56:31.145Z,96501.97
2023-02-11T08:58:57.865Z,96523.38
2023-02-11T09:01:28.843Z,96528.72
2023-02-11T09:03:56.548Z,96530.81
2023-02-11T09:06:25.992Z,96521.66
2023-02-11T09:08:55.064Z,96524.25
2023-02-11T09:11:26.491Z,96534.28
2023-02-11T09:13:54.497Z,96528.34
2023-02-11T09:16:27.747Z,96529.75
2023-02-11T09:18:57.242Z,96522.34
2023-02-11T09:21:24.241Z,96523.25
2023-02-11T09:23:51.864Z,96538.88
2023-02-11T09:26:25.215Z,96538.19
2023-02-11T09:28:52.415Z,96557.13
2023-02-11T09:31:25.190Z,96545.28
2023-02-11T09:33:55.284Z,96567.09
2023-02-11T09:36:28.830Z,96557.59
2023-02-11T09:38:58.814Z,96560.00
2023-02-11T09:41:25.426Z,96540.44
2023-02-11T09:43:56.246Z,96523.34
2023-02-11T09:46:24.966Z,96515.31
2023-02-11T09:48:55.085Z,96513.59
2023-02-11T09:51:29.840Z,96507.63
2023-02-11T09:54:03.837Z,96509.06
2023-02-11T09:56:31.931Z,96508.94
2023-02-11T09:58:58.716Z,96517.69
2023-02-11T10:01:25.487Z,96516.59
2023-02-11T10:04:16.846Z,96501.69
2023-02-11T10:06:54.309Z,96515.75
2023-02-11T10:09:35.865Z,96512.84
2023-02-11T10:12:11.710Z,96507.88
2023-02-11T10:14:38.702Z,96513.66
2023-02-11T10:17:22.438Z,96506.09
2023-02-11T10:20:20.936Z,96505.38
2023-02-11T10:22:51.910Z,96509.84
2023-02-11T10:25:39.118Z,96499.25
2023-02-11T10:28:21.498Z,96505.75
2023-02-11T10:30:57.447Z,96508.25
2023-02-11T10:33:33.270Z,96505.31
2023-02-11T10:36:00.060Z,96517.03
2023-02-11T10:38:28.135Z,96513.09
2023-02-11T10:40:54.879Z,96536.34
2023-02-11T10:43:26.769Z,96526.38
2023-02-11T10:45:56.057Z,96519.06
2023-02-11T10:48:44.916Z,96539.53
2023-02-11T10:51:28.453Z,96535.03
2023-02-11T10:54:04.624Z,96542.63
2023-02-11T10:56:34.979Z,96519.25
2023-02-11T10:59:03.769Z,96536.97
2023-02-11T11:01:43.672Z,96537.97
2023-02-11T11:04:42.931Z,96552.00
2023-02-11T11:07:25.060Z,96514.03
2023-02-11T11:10:08.515Z,96523.72
2023-02-11T11:12:49.030Z,96550.44
2023-02-11T11:15:30.441Z,96527.56
2023-02-11T11:18:23.542Z,96529.94
2023-02-11T11:21:24.284Z,96523.06
2023-02-11T11:24:00.033Z,96534.94
2023-02-11T11:26:49.370Z,96543.72
2023-02-11T11:29:20.371Z,96523.09
2023-02-11T11:31:53.407Z,96551.00
2023-02-11T11:34:40.786Z,96538.50
2023-02-11T11:37:19.137Z,96538.53
2023-02-11T11:40:08.421Z,96536.91
2023-02-11T11:42:37.719Z,96522.53
2023-02-11T11:45:05.191Z,96527.34
2023-02-11T11:47:52.694Z,96532.38
2023-02-11T11:50:27.281Z,96524.44
2023-02-11T11:53:31.285Z,96515.81
2023-02-11T11:56:07.304Z,96520.34
2023-02-11T11:58:35.142Z,96532.19
2023-02-11T12:01:36.211Z,96528.09
2023-02-11T12:04:30.919Z,96513.84
2023-02-11T12:07:07.081Z,96525.94
2023-02-11T12:09:45.746Z,96530.84
2023-02-11T12:12:33.422Z,96545.44
2023-02-11T12:15:00.509Z,96536.78
2023-02-11T12:18:07.620Z,96538.50
2023-02-11T12:21:15.720Z,96533.19
2023-02-11T12:23:54.839Z,96525.84
2023-02-11T12:26:24.795Z,96520.28
2023-02-11T12:29:07.574Z,96531.31
2023-02-11T12:31:51.694Z,96523.38
2023-02-11T12:34:18.422Z,96519.41
2023-02-11T12:36:55.284Z,96517.50
2023-02-11T12:39:21.984Z,96502.06
2023-02-11T12:42:38.801Z,96524.63
2023-02-11T12:45:11.786Z,96516.03
2023-02-11T12:47:50.063Z,96508.31
2023-02-11T12:50:16.770Z,96502.78
2023-02-11T12:52:43.441Z,96521.09
2023-02-11T12:55:21.127Z,96530.41
2023-02-11T12:57:50.520Z,96517.31
2023-02-11T13:00:25.060Z,96511.59
2023-02-11T13:03:06.046Z,96527.34
2023-02-11T13:05:45.123Z,96524.19
2023-02-11T13:08:21.088Z,96534.22
2023-02-11T13:10:53.112Z,96501.03
2023-02-11T13:13:27.241Z,96492.72
2023-02-11T13:16:07.381Z,96500.38
2023-02-11T13:18:45.011Z,96504.41
2023-02-11T13:21:14.689Z,96525.03
2023-02-11T13:23:47.358Z,96511.22
2023-02-11T13:26:25.598Z,96503.34
2023-02-11T13:28:56.202Z,96494.53
2023-02-11T13:31:27.543Z,96482.31
2023-02-11T13:33:54.477Z,96484.72
2023-02-11T13:36:24.417Z,96487.38
2023-02-11T13:39:00.473Z,96475.06
2023-02-11T13:41:41.495Z,96477.84
2023-02-11T13:44:10.988Z,96496.06
2023-02-11T13:46:55.634Z,96476.34
2023-02-11T13:49:36.317Z,96484.16
2023-02-11T13:52:06.822Z,96478.59
2023-02-11T13:54:37.836Z,96478.31
2023-02-11T13:57:20.243Z,96475.13
2023-02-11T13:59:58.569Z,96473.25
2023-02-11T14:02:53.511Z,96469.78
2023-02-11T14:05:43.697Z,96475.41
2023-02-11T14:08:28.889Z,96485.56
2023-02-11T14:11:02.252Z,96478.03
2023-02-11T14:13:34.018Z,96469.09
2023-02-11T14:16:17.118Z,96475.50
2023-02-11T14:18:47.071Z,96476.50
2023-02-11T14:21:16.708Z,96475.50
2023-02-11T14:23:44.319Z,96474.81
2023-02-11T14:26:11.203Z,96485.13
2023-02-11T14:28:41.757Z,96480.25
2023-02-11T14:31:13.044Z,96476.00
2023-02-11T14:34:08.181Z,96462.09
2023-02-11T14:36:51.858Z,96471.31
2023-02-11T14:39:41.848Z,96453.50
2023-02-11T14:42:19.039Z,96474.22
2023-02-11T14:44:49.267Z,96468.25
2023-02-11T14:47:20.967Z,96465.41
2023-02-11T14:49:49.912Z,96488.72
2023-02-11T14:52:28.524Z,96491.34
2023-02-11T14:55:33.243Z,96486.56
2023-02-11T14:58:08.712Z,96497.38
2023-02-11T15:00:35.829Z,96486.59
2023-02-11T15:03:02.797Z,96472.31
2023-02-11T15:05:29.983Z,96487.06
2023-02-11T15:08:04.743Z,96501.69
2023-02-11T15:10:36.510Z,96497.09
2023-02-11T15:13:05.144Z,96487.06
2023-02-11T15:15:33.010Z,96492.06
2023-02-11T15:18:03.399Z,96482.69
2023-02-11T15:20:33.304Z,96484.75
2023-02-11T15:23:06.094Z,96481.53
2023-02-11T15:25:34.270Z,96475.91
2023-02-11T15:28:01.611Z,96478.59
2023-02-11T15:30:34.158Z,96474.50
2023-02-11T15:33:03.348Z,96473.31
2023-02-11T15:35:35.075Z,96468.16
2023-02-11T15:38:01.954Z,96467.66
2023-02-11T15:40:32.996Z,96462.06
2023-02-11T15:43:06.484Z,96462.81
2023-02-11T15:45:42.057Z,96463.47
2023-02-11T15:48:30.726Z,96481.22
2023-02-11T15:51:01.550Z,96479.81
2023-02-11T15:53:31.382Z,96468.00
2023-02-11T15:56:26.958Z,96472.31
2023-02-11T15:58:57.142Z,96477.38
2023-02-11T16:01:35.751Z,96472.00
2023-02-11T16:04:04.014Z,96479.78
2023-02-11T16:06:42.806Z,96472.59
2023-02-11T16:09:11.275Z,96468.41
2023-02-11T16:11:55.421Z,96472.00
2023-02-11T16:14:34.584Z,96470.06
2023-02-11T16:17:22.580Z,96475.03
2023-02-11T16:19:52.148Z,96474.31
2023-02-11T16:22:35.626Z,96503.50
2023-02-11T16:25:02.623Z,96499.41
2023-02-11T16:27:37.252Z,96492.88
2023-02-11T16:30:05.694Z,96497.66
2023-02-11T16:32:32.558Z,96493.50
2023-02-11T16:35:01.423Z,96499.75
2023-02-11T16:37:28.448Z,96491.44
2023-02-11T16:39:58.318Z,96509.06
2023-02-11T16:42:25.598Z,96513.09
2023-02-11T16:44:53.092Z,96518.25
2023-02-11T16:47:26.660Z,96502.06
2023-02-11T16:49:55.539Z,96510.84
2023-02-11T16:52:23.023Z,96498.06
2023-02-11T16:54:50.225Z,96492.06
2023-02-11T16:57:22.335Z,96490.50
2023-02-11T16:59:49.976Z,96504.13
2023-02-11T17:02:28.562Z,96507.13
2023-02-11T17:04:58.044Z,96501.25
2023-02-11T17:07:24.900Z,96503.88
2023-02-11T17:09:52.400Z,96503.59
2023-02-11T17:12:19.876Z,96507.81
2023-02-11T17:14:46.676Z,96511.94
2023-02-11T17:17:13.884Z,96515.63
2023-02-11T17:19:41.716Z,96523.38
2023-02-11T17:22:10.280Z,96524.28
2023-02-11T17:24:37.489Z,96524.72
2023-02-11T17:27:04.341Z,96524.94
2023-02-11T17:29:31.045Z,96524.66
2023-02-11T17:31:58.172Z,96527.00
2023-02-11T17:34:25.091Z,96547.78
2023-02-11T17:36:52.219Z,96539.03
2023-02-11T17:39:21.026Z,96560.78
2023-02-11T17:41:48.153Z,96567.34
2023-02-11T17:44:16.487Z,96544.78
2023-02-11T17:46:43.512Z,96553.63
2023-02-11T17:49:12.015Z,96561.78
2023-02-11T17:51:40.197Z,96583.47
2023-02-11T17:54:11.064Z,96576.47
2023-02-11T17:56:39.001Z,96588.44
2023-02-11T17:59:06.908Z,96599.03
2023-02-11T18:01:35.165Z,96593.84
2023-02-11T18:04:02.749Z,96587.19
2023-02-11T18:06:29.568Z,96589.34
2023-02-11T18:08:59.882Z,96582.97
2023-02-11T18:11:28.284Z,96571.63
2023-02-11T18:13:54.976Z,96583.88
2023-02-11T18:16:23.325Z,96583.44
2023-02-11T18:18:50.473Z,96593.50
2023-02-11T18:21:20.608Z,96595.72
2023-02-11T18:23:48.419Z,96597.50
2023-02-11T18:26:17.626Z,96592.19
2023-02-11T18:28:45.954Z,96587.66
2023-02-11T18:31:13.940Z,96590.06
2023-02-11T18:33:41.616Z,96587.25
2023-02-11T18:36:11.116Z,96580.53
2023-02-11T18:38:38.394Z,96577.13
2023-02-11T18:41:07.229Z,96575.09
2023-02-11T18:43:34.569Z,96577.19
2023-02-11T18:46:02.978Z,96579.88
2023-02-11T18:48:30.696Z,96591.00
2023-02-11T18:50:57.869Z,96571.03
2023-02-11T18:53:25.309Z,96569.84
2023-02-11T18:55:52.782Z,96579.94
2023-02-11T18:58:21.358Z,96591.41
2023-02-11T19:00:50.016Z,96597.63
2023-02-11T19:03:17.616Z,96583.78
2023-02-11T19:05:49.609Z,96591.38
2023-02-11T19:08:17.782Z,96585.09
2023-02-11T19:10:47.241Z,96587.69
2023-02-11T19:13:15.675Z,96579.59
2023-02-11T19:15:44.255Z,96590.91
2023-02-11T19:18:12.172Z,96588.97
2023-02-11T19:20:40.420Z,96579.91
2023-02-11T19:23:07.304Z,96581.53
2023-02-11T19:25:34.705Z,96581.75
2023-02-11T19:28:02.755Z,96590.16
2023-02-11T19:30:29.519Z,96591.41
2023-02-11T19:32:57.898Z,96594.59
2023-02-11T19:35:25.797Z,96599.59
2023-02-11T19:37:52.770Z,96600.53
2023-02-11T19:40:21.339Z,96590.31
2023-02-11T19:42:48.070Z,96587.34
2023-02-11T19:45:15.078Z,96563.63
2023-02-11T19:47:41.853Z,96554.16
2023-02-11T19:50:09.450Z,96557.03
2023-02-11T19:52:40.704Z,96555.50
2023-02-11T19:55:08.386Z,96560.84
2023-02-11T19:57:36.854Z,96550.41
2023-02-11T20:00:04.700Z,96557.09
2023-02-11T20:02:40.383Z,96545.47
2023-02-11T20:05:08.164Z,96550.34
2023-02-11T20:07:35.195Z,96544.03
2023-02-11T20:10:02.611Z,96553.59
2023-02-11T20:12:29.973Z,96561.19
2023-02-11T20:14:56.760Z,96561.91
2023-02-11T20:17:23.514Z,96564.63
2023-02-11T20:19:50.347Z,96569.69
2023-02-11T20:22:17.589Z,96570.53
2023-02-11T20:24:44.806Z,96565.47
2023-02-11T20:27:12.545Z,96572.69
2023-02-11T20:29:40.436Z,96580.84
2023-02-11T20:32:07.627Z,96577.47
2023-02-11T20:34:34.701Z,96569.41
2023-02-11T20:37:02.748Z,96572.91
2023-02-11T20:39:30.184Z,96572.19
2023-02-11T20:41:58.229Z,96578.03
2023-02-11T20:44:25.670Z,96587.78
2023-02-11T20:46:54.141Z,96588.88
2023-02-11T20:49:24.709Z,96606.91
2023-02-11T20:51:53.794Z,96602.66
2023-02-11T20:54:22.573Z,96597.69
2023-02-11T20:56:51.276Z,96596.78
2023-02-11T20:59:19.264Z,96606.69
2023-02-11T21:01:49.176Z,96601.06
2023-02-11T21:04:18.728Z,96601.53
2023-02-11T21:06:48.958Z,96592.47
2023-02-11T21:09:19.934Z,96585.16
2023-02-11T21:11:47.492Z,96585.84
2023-02-11T21:14:14.380Z,96596.66
2023-02-11T21:16:42.331Z,96584.34
2023-02-11T21:19:09.238Z,96593.69
2023-02-11T21:21:37.228Z,96588.59
2023-02-11T21:24:05.142Z,96576.31
2023-02-11T21:26:32.572Z,96567.25
2023-02-11T21:28:59.351Z,96578.91
2023-02-11T21:31:29.288Z,96582.84
2023-02-11T21:33:59.414Z,96579.59
2023-02-11T21:36:28.493Z,96594.91
2023-02-11T21:38:55.519Z,96591.81
2023-02-11T21:41:22.974Z,96590.31
2023-02-11T21:43:51.028Z,96559.06
2023-02-11T21:46:18.941Z,96569.34
2023-02-11T21:48:46.410Z,96560.84
2023-02-11T21:51:18.421Z,96571.03
2023-02-11T21:53:45.787Z,96573.94
2023-02-11T21:56:17.627Z,96576.41
2023-02-11T21:58:45.775Z,96556.78
2023-02-11T22:01:15.624Z,96554.72
2023-02-11T22:03:42.825Z,96558.72
2023-02-11T22:06:12.174Z,96554.25
2023-02-11T22:08:39.985Z,96546.44
2023-02-11T22:11:10.573Z,96538.69
2023-02-11T22:13:38.028Z,96560.69
2023-02-11T22:16:07.781Z,96541.47
2023-02-11T22:18:34.883Z,96530.16
2023-02-11T22:21:08.010Z,96533.06
2023-02-11T22:23:35.226Z,96543.94
2023-02-11T22:26:11.002Z,96545.97
2023-02-11T22:28:40.526Z,96538.91
2023-02-11T22:31:12.054Z,96535.75
2023-02-11T22:33:39.415Z,96543.38
2023-02-11T22:36:12.532Z,96555.13
2023-02-11T22:38:40.542Z,96554.53
2023-02-11T22:41:09.628Z,96557.75
2023-02-11T22:43:36.653Z,96549.47
2023-02-11T22:46:06.479Z,96548.53
2023-02-11T22:48:35.160Z,96562.38
2023-02-11T22:51:06.625Z,96569.50
2023-02-11T22:53:33.929Z,96558.16
2023-02-11T22:56:08.386Z,96559.91
2023-02-11T22:58:36.261Z,96540.94
2023-02-11T23:01:04.378Z,96563.31
2023-02-11T23:03:32.115Z,96569.69
2023-02-11T23:06:00.078Z,96577.75
2023-02-11T23:08:28.271Z,96562.09
2023-02-11T23:10:55.290Z,96560.31
2023-02-11T23:13:22.413Z,96574.50
2023-02-11T23:15:49.599Z,96566.66
2023-02-11T23:18:16.584Z,96572.72
2023-02-11T23:20:43.876Z,96589.50
2023-02-11T23:23:11.052Z,96595.19
2023-02-11T23:25:43.475Z,96613.03
2023-02-11T23:28:12.091Z,96620.09
2023-02-11T23:30:39.422Z,96618.50
2023-02-11T23:33:06.166Z,96607.22
2023-02-11T23:35:33.317Z,96591.03
2023-02-11T23:38:00.170Z,96605.53
2023-02-11T23:40:27.396Z,96572.19
2023-02-11T23:42:54.092Z,96588.19
2023-02-11T23:45:20.805Z,96596.75
2023-02-11T23:47:47.713Z,96589.38
2023-02-11T23:50:14.468Z,96608.94
2023-02-11T23:52:41.690Z,96613.09
2023-02-11T23:55:08.847Z,96613.13
2023-02-11T23:57:36.213Z,96615.78
